Terminal Aerodrome Forecast
Issued by NWS

Home | Current Version | Previous Version | Text Only | Print | Product List | Glossary On
Versions: 1 2 3 4 5 6 7 8 9 10 11 12 13 14
000
FTPA31 PHFO 221902 AAA
TAFHNY
TAF AMD
PHNY 221902Z 2219/2318 04015G23KT P6SM FEW025 SCT040
     FM230000 04020G30KT P6SM FEW025 SCT040=

USA.gov is the U.S. government's official web portal to all federal, state and local government web resources and services.